logo
Search for airport 
image banner adimage banner adimage banner ad
image banner ad

ED0250 - Kusel

Located in , Germany

ICAO - , IATA -

Data provided by Airmate  

General information

Coordinates: N49°28'41" E7°18'34"
Elevation is 1476 feet MSL.
 
View others Airports in Saarland

Operational data

Special qualification required
Current time UTC:
Current local time:
Weather at : ETAR - Ramstein Ab ( 21 km )
TAF: TAF ETAR 241000Z 2410/2516 36009KT 9999 OVC030 QNH3010INS BECMG 2417/2418 04006KT 9999 BKN040 QNH3011INS BECMG 2423/2424 VRB06KT 9999 SCT030 QNH3006INS TEMPO 2501/2504 8000 BR TX23/2414Z TN10/2504Z
View NOTAMs / SUP AIP / TFR affecting this airport [VIEW]
Communications frequencies: [VIEW]

Runways:

RWY identifierQFULength (ft)Width (ft)SurfaceLDA (ft)
10100°24610OTHER
28280°24610OTHER

Airport contact information

Address: Germany

Satellite view of ED0250